sensor_id;sensor_type;location;lat;lon;timestamp;P1;durP1;ratioP1;P2;durP2;ratioP2
38037;SDS011;23843;51.320;12.340;2023-11-18T00:02:14;0.90;;;0.90;;
38037;SDS011;23843;51.320;12.340;2023-11-18T00:04:40;1.90;;;0.50;;
38037;SDS011;23843;51.320;12.340;2023-11-18T00:07:07;0.80;;;0.63;;
38037;SDS011;23843;51.320;12.340;2023-11-18T00:09:32;0.60;;;0.60;;
38037;SDS011;23843;51.320;12.340;2023-11-18T00:11:57;0.53;;;0.40;;
38037;SDS011;23843;51.320;12.340;2023-11-18T00:14:23;0.60;;;0.60;;
38037;SDS011;23843;51.320;12.340;2023-11-18T00:16:48;0.50;;;0.50;;
38037;SDS011;23843;51.320;12.340;2023-11-18T00:19:14;0.20;;;0.20;;
38037;SDS011;23843;51.320;12.340;2023-11-18T00:21:39;0.43;;;0.43;;
38037;SDS011;23843;51.320;12.340;2023-11-18T00:24:06;0.30;;;0.30;;
38037;SDS011;23843;51.320;12.340;2023-11-18T00:26:32;0.37;;;0.33;;
38037;SDS011;23843;51.320;12.340;2023-11-18T00:28:57;0.20;;;0.20;;
38037;SDS011;23843;51.320;12.340;2023-11-18T00:31:23;0.20;;;0.20;;
38037;SDS011;23843;51.320;12.340;2023-11-18T00:33:48;0.30;;;0.30;;
38037;SDS011;23843;51.320;12.340;2023-11-18T00:36:14;0.20;;;0.20;;
38037;SDS011;23843;51.320;12.340;2023-11-18T00:38:39;0.30;;;0.30;;
38037;SDS011;23843;51.320;12.340;2023-11-18T00:41:07;0.30;;;0.30;;
38037;SDS011;23843;51.320;12.340;2023-11-18T00:43:32;0.40;;;0.40;;
38037;SDS011;23843;51.320;12.340;2023-11-18T00:45:58;0.70;;;0.40;;
38037;SDS011;23843;51.320;12.340;2023-11-18T00:48:23;0.50;;;0.33;;
38037;SDS011;23843;51.320;12.340;2023-11-18T00:50:49;0.50;;;0.30;;
38037;SDS011;23843;51.320;12.340;2023-11-18T00:53:14;0.23;;;0.23;;
38037;SDS011;23843;51.320;12.340;2023-11-18T00:55:39;0.30;;;0.30;;
38037;SDS011;23843;51.320;12.340;2023-11-18T00:58:06;0.20;;;0.20;;
38037;SDS011;23843;51.320;12.340;2023-11-18T01:00:32;0.20;;;0.20;;
38037;SDS011;23843;51.320;12.340;2023-11-18T01:02:57;0.10;;;0.10;;
38037;SDS011;23843;51.320;12.340;2023-11-18T01:05:22;0.30;;;0.30;;
38037;SDS011;23843;51.320;12.340;2023-11-18T01:07:48;0.40;;;0.40;;
38037;SDS011;23843;51.320;12.340;2023-11-18T01:10:13;0.20;;;0.20;;
38037;SDS011;23843;51.320;12.340;2023-11-18T01:12:39;0.30;;;0.30;;
38037;SDS011;23843;51.320;12.340;2023-11-18T01:15:06;0.30;;;0.30;;
38037;SDS011;23843;51.320;12.340;2023-11-18T01:17:32;0.60;;;0.60;;
38037;SDS011;23843;51.320;12.340;2023-11-18T01:19:58;0.50;;;0.50;;
38037;SDS011;23843;51.320;12.340;2023-11-18T01:22:24;0.10;;;0.10;;
38037;SDS011;23843;51.320;12.340;2023-11-18T01:24:49;0.50;;;0.50;;
38037;SDS011;23843;51.320;12.340;2023-11-18T01:27:15;0.10;;;0.10;;
38037;SDS011;23843;51.320;12.340;2023-11-18T01:29:40;0.20;;;0.20;;
38037;SDS011;23843;51.320;12.340;2023-11-18T01:32:07;0.10;;;0.10;;
38037;SDS011;23843;51.320;12.340;2023-11-18T01:34:32;0.00;;;0.00;;
38037;SDS011;23843;51.320;12.340;2023-11-18T01:36:58;0.10;;;0.10;;
38037;SDS011;23843;51.320;12.340;2023-11-18T01:39:23;0.30;;;0.20;;
38037;SDS011;23843;51.320;12.340;2023-11-18T01:41:49;0.10;;;0.10;;
38037;SDS011;23843;51.320;12.340;2023-11-18T01:44:14;0.10;;;0.10;;
38037;SDS011;23843;51.320;12.340;2023-11-18T01:46:40;0.03;;;0.03;;
38037;SDS011;23843;51.320;12.340;2023-11-18T01:49:07;0.00;;;0.00;;
38037;SDS011;23843;51.320;12.340;2023-11-18T01:51:33;0.10;;;0.10;;
38037;SDS011;23843;51.320;12.340;2023-11-18T01:53:59;0.03;;;0.00;;
38037;SDS011;23843;51.320;12.340;2023-11-18T01:56:25;0.10;;;0.10;;
38037;SDS011;23843;51.320;12.340;2023-11-18T01:58:51;0.10;;;0.10;;
38037;SDS011;23843;51.320;12.340;2023-11-18T02:01:17;0.10;;;0.10;;
38037;SDS011;23843;51.320;12.340;2023-11-18T02:03:43;0.10;;;0.10;;
38037;SDS011;23843;51.320;12.340;2023-11-18T02:06:10;0.10;;;0.10;;
38037;SDS011;23843;51.320;12.340;2023-11-18T02:08:35;0.30;;;0.23;;
38037;SDS011;23843;51.320;12.340;2023-11-18T02:11:05;0.10;;;0.10;;
38037;SDS011;23843;51.320;12.340;2023-11-18T02:13:39;0.10;;;0.10;;
38037;SDS011;23843;51.320;12.340;2023-11-18T02:16:08;0.10;;;0.10;;
38037;SDS011;23843;51.320;12.340;2023-11-18T02:18:34;0.10;;;0.10;;
38037;SDS011;23843;51.320;12.340;2023-11-18T02:21:04;0.00;;;0.00;;
38037;SDS011;23843;51.320;12.340;2023-11-18T02:23:32;0.00;;;0.00;;
38037;SDS011;23843;51.320;12.340;2023-11-18T02:25:59;0.27;;;0.10;;
38037;SDS011;23843;51.320;12.340;2023-11-18T02:28:24;0.20;;;0.20;;
38037;SDS011;23843;51.320;12.340;2023-11-18T02:30:50;0.10;;;0.10;;
38037;SDS011;23843;51.320;12.340;2023-11-18T02:33:27;0.13;;;0.13;;
38037;SDS011;23843;51.320;12.340;2023-11-18T02:35:59;0.10;;;0.10;;
38037;SDS011;23843;51.320;12.340;2023-11-18T02:38:31;0.40;;;0.20;;
38037;SDS011;23843;51.320;12.340;2023-11-18T02:41:02;0.33;;;0.20;;
38037;SDS011;23843;51.320;12.340;2023-11-18T02:43:34;0.30;;;0.30;;
38037;SDS011;23843;51.320;12.340;2023-11-18T02:46:01;0.20;;;0.20;;
38037;SDS011;23843;51.320;12.340;2023-11-18T02:48:28;0.17;;;0.10;;
38037;SDS011;23843;51.320;12.340;2023-11-18T02:50:54;0.33;;;0.20;;
38037;SDS011;23843;51.320;12.340;2023-11-18T02:53:19;0.20;;;0.17;;
38037;SDS011;23843;51.320;12.340;2023-11-18T02:55:45;0.20;;;0.20;;
38037;SDS011;23843;51.320;12.340;2023-11-18T02:58:11;0.20;;;0.20;;
38037;SDS011;23843;51.320;12.340;2023-11-18T03:00:37;0.10;;;0.10;;
38037;SDS011;23843;51.320;12.340;2023-11-18T03:03:02;0.13;;;0.10;;
38037;SDS011;23843;51.320;12.340;2023-11-18T03:05:28;0.23;;;0.20;;
38037;SDS011;23843;51.320;12.340;2023-11-18T03:07:53;0.17;;;0.10;;
38037;SDS011;23843;51.320;12.340;2023-11-18T03:10:19;0.17;;;0.17;;
38037;SDS011;23843;51.320;12.340;2023-11-18T03:12:44;0.20;;;0.20;;
38037;SDS011;23843;51.320;12.340;2023-11-18T03:15:11;0.30;;;0.20;;
38037;SDS011;23843;51.320;12.340;2023-11-18T03:17:37;0.20;;;0.20;;
38037;SDS011;23843;51.320;12.340;2023-11-18T03:20:03;0.40;;;0.30;;
38037;SDS011;23843;51.320;12.340;2023-11-18T03:22:28;0.40;;;0.30;;
38037;SDS011;23843;51.320;12.340;2023-11-18T03:24:54;0.20;;;0.20;;
38037;SDS011;23843;51.320;12.340;2023-11-18T03:27:19;0.10;;;0.10;;
38037;SDS011;23843;51.320;12.340;2023-11-18T03:29:45;0.10;;;0.10;;
38037;SDS011;23843;51.320;12.340;2023-11-18T03:32:12;0.10;;;0.10;;
38037;SDS011;23843;51.320;12.340;2023-11-18T03:34:37;0.20;;;0.20;;
38037;SDS011;23843;51.320;12.340;2023-11-18T03:37:02;0.20;;;0.10;;
38037;SDS011;23843;51.320;12.340;2023-11-18T03:39:28;0.20;;;0.20;;
38037;SDS011;23843;51.320;12.340;2023-11-18T03:41:53;0.20;;;0.20;;
38037;SDS011;23843;51.320;12.340;2023-11-18T03:44:19;0.27;;;0.10;;
38037;SDS011;23843;51.320;12.340;2023-11-18T03:46:44;0.10;;;0.10;;
38037;SDS011;23843;51.320;12.340;2023-11-18T03:49:11;0.10;;;0.10;;
38037;SDS011;23843;51.320;12.340;2023-11-18T03:51:36;0.10;;;0.10;;
38037;SDS011;23843;51.320;12.340;2023-11-18T03:54:02;0.70;;;0.60;;
38037;SDS011;23843;51.320;12.340;2023-11-18T03:56:28;0.60;;;0.40;;
38037;SDS011;23843;51.320;12.340;2023-11-18T03:58:53;0.30;;;0.30;;
38037;SDS011;23843;51.320;12.340;2023-11-18T04:01:19;0.20;;;0.20;;
38037;SDS011;23843;51.320;12.340;2023-11-18T04:03:45;0.20;;;0.20;;
38037;SDS011;23843;51.320;12.340;2023-11-18T04:06:12;0.40;;;0.33;;
38037;SDS011;23843;51.320;12.340;2023-11-18T04:08:37;0.20;;;0.20;;
38037;SDS011;23843;51.320;12.340;2023-11-18T04:11:03;0.43;;;0.20;;
38037;SDS011;23843;51.320;12.340;2023-11-18T04:13:28;0.30;;;0.30;;
38037;SDS011;23843;51.320;12.340;2023-11-18T04:15:54;0.53;;;0.30;;
38037;SDS011;23843;51.320;12.340;2023-11-18T04:18:19;0.40;;;0.30;;
38037;SDS011;23843;51.320;12.340;2023-11-18T04:20:45;0.10;;;0.10;;
38037;SDS011;23843;51.320;12.340;2023-11-18T04:23:12;0.20;;;0.20;;
38037;SDS011;23843;51.320;12.340;2023-11-18T04:25:37;0.30;;;0.30;;
38037;SDS011;23843;51.320;12.340;2023-11-18T04:28:03;0.30;;;0.30;;
38037;SDS011;23843;51.320;12.340;2023-11-18T04:30:28;0.10;;;0.10;;
38037;SDS011;23843;51.320;12.340;2023-11-18T04:32:54;0.43;;;0.30;;
38037;SDS011;23843;51.320;12.340;2023-11-18T04:35:19;0.30;;;0.30;;
38037;SDS011;23843;51.320;12.340;2023-11-18T04:37:44;0.20;;;0.20;;
38037;SDS011;23843;51.320;12.340;2023-11-18T04:40:11;0.20;;;0.20;;
38037;SDS011;23843;51.320;12.340;2023-11-18T04:42:38;0.20;;;0.20;;
38037;SDS011;23843;51.320;12.340;2023-11-18T04:45:04;0.20;;;0.20;;
38037;SDS011;23843;51.320;12.340;2023-11-18T04:47:30;0.60;;;0.30;;
38037;SDS011;23843;51.320;12.340;2023-11-18T04:49:55;0.20;;;0.20;;
38037;SDS011;23843;51.320;12.340;2023-11-18T04:52:21;0.30;;;0.30;;
38037;SDS011;23843;51.320;12.340;2023-11-18T04:54:46;0.20;;;0.17;;
38037;SDS011;23843;51.320;12.340;2023-11-18T04:57:13;0.33;;;0.30;;
38037;SDS011;23843;51.320;12.340;2023-11-18T04:59:38;0.43;;;0.40;;
38037;SDS011;23843;51.320;12.340;2023-11-18T05:02:04;0.30;;;0.30;;
38037;SDS011;23843;51.320;12.340;2023-11-18T05:04:29;0.20;;;0.20;;
38037;SDS011;23843;51.320;12.340;2023-11-18T05:06:55;0.30;;;0.30;;
38037;SDS011;23843;51.320;12.340;2023-11-18T05:09:20;0.40;;;0.40;;
38037;SDS011;23843;51.320;12.340;2023-11-18T05:11:46;0.30;;;0.30;;
38037;SDS011;23843;51.320;12.340;2023-11-18T05:14:13;0.73;;;0.60;;
38037;SDS011;23843;51.320;12.340;2023-11-18T05:16:38;0.30;;;0.30;;
38037;SDS011;23843;51.320;12.340;2023-11-18T05:19:04;0.57;;;0.40;;
38037;SDS011;23843;51.320;12.340;2023-11-18T05:21:29;0.50;;;0.40;;
38037;SDS011;23843;51.320;12.340;2023-11-18T05:23:54;0.30;;;0.30;;
38037;SDS011;23843;51.320;12.340;2023-11-18T05:26:20;0.20;;;0.20;;
38037;SDS011;23843;51.320;12.340;2023-11-18T05:28:45;0.23;;;0.20;;
38037;SDS011;23843;51.320;12.340;2023-11-18T05:31:12;0.37;;;0.37;;
38037;SDS011;23843;51.320;12.340;2023-11-18T05:33:38;0.33;;;0.33;;
38037;SDS011;23843;51.320;12.340;2023-11-18T05:36:03;0.20;;;0.20;;
38037;SDS011;23843;51.320;12.340;2023-11-18T05:38:29;0.23;;;0.20;;
38037;SDS011;23843;51.320;12.340;2023-11-18T05:40:55;0.30;;;0.30;;
38037;SDS011;23843;51.320;12.340;2023-11-18T05:43:20;0.30;;;0.30;;
38037;SDS011;23843;51.320;12.340;2023-11-18T05:45:46;0.30;;;0.30;;
38037;SDS011;23843;51.320;12.340;2023-11-18T05:48:13;0.20;;;0.20;;
38037;SDS011;23843;51.320;12.340;2023-11-18T05:50:38;0.57;;;0.37;;
38037;SDS011;23843;51.320;12.340;2023-11-18T05:53:04;0.20;;;0.20;;
38037;SDS011;23843;51.320;12.340;2023-11-18T05:55:29;0.40;;;0.30;;
38037;SDS011;23843;51.320;12.340;2023-11-18T05:57:54;0.53;;;0.33;;
38037;SDS011;23843;51.320;12.340;2023-11-18T06:00:20;0.30;;;0.30;;
38037;SDS011;23843;51.320;12.340;2023-11-18T06:02:45;0.50;;;0.50;;
38037;SDS011;23843;51.320;12.340;2023-11-18T06:05:12;0.50;;;0.40;;
38037;SDS011;23843;51.320;12.340;2023-11-18T06:07:37;0.50;;;0.47;;
38037;SDS011;23843;51.320;12.340;2023-11-18T06:10:03;0.40;;;0.40;;
38037;SDS011;23843;51.320;12.340;2023-11-18T06:12:29;0.90;;;0.40;;
38037;SDS011;23843;51.320;12.340;2023-11-18T06:14:55;0.30;;;0.30;;
38037;SDS011;23843;51.320;12.340;2023-11-18T06:17:20;0.83;;;0.57;;
38037;SDS011;23843;51.320;12.340;2023-11-18T06:19:46;0.40;;;0.40;;
38037;SDS011;23843;51.320;12.340;2023-11-18T06:22:12;0.50;;;0.30;;
38037;SDS011;23843;51.320;12.340;2023-11-18T06:24:38;0.67;;;0.47;;
38037;SDS011;23843;51.320;12.340;2023-11-18T06:27:03;0.40;;;0.40;;
38037;SDS011;23843;51.320;12.340;2023-11-18T06:29:29;0.50;;;0.50;;
38037;SDS011;23843;51.320;12.340;2023-11-18T06:31:54;0.50;;;0.50;;
38037;SDS011;23843;51.320;12.340;2023-11-18T06:34:19;0.43;;;0.30;;
38037;SDS011;23843;51.320;12.340;2023-11-18T06:36:45;0.40;;;0.40;;
38037;SDS011;23843;51.320;12.340;2023-11-18T06:39:12;0.73;;;0.40;;
38037;SDS011;23843;51.320;12.340;2023-11-18T06:41:37;0.47;;;0.47;;
38037;SDS011;23843;51.320;12.340;2023-11-18T06:44:03;0.53;;;0.50;;
38037;SDS011;23843;51.320;12.340;2023-11-18T06:46:29;0.90;;;0.80;;
38037;SDS011;23843;51.320;12.340;2023-11-18T06:48:56;0.80;;;0.60;;
38037;SDS011;23843;51.320;12.340;2023-11-18T06:51:21;0.60;;;0.60;;
38037;SDS011;23843;51.320;12.340;2023-11-18T06:53:47;0.70;;;0.50;;
38037;SDS011;23843;51.320;12.340;2023-11-18T06:56:13;0.40;;;0.40;;
38037;SDS011;23843;51.320;12.340;2023-11-18T06:58:39;0.50;;;0.50;;
38037;SDS011;23843;51.320;12.340;2023-11-18T07:01:05;0.40;;;0.40;;
38037;SDS011;23843;51.320;12.340;2023-11-18T07:03:30;0.50;;;0.50;;
38037;SDS011;23843;51.320;12.340;2023-11-18T07:05:56;0.73;;;0.70;;
38037;SDS011;23843;51.320;12.340;2023-11-18T07:08:21;0.43;;;0.43;;
38037;SDS011;23843;51.320;12.340;2023-11-18T07:10:46;0.80;;;0.53;;
38037;SDS011;23843;51.320;12.340;2023-11-18T07:13:13;1.07;;;0.87;;
38037;SDS011;23843;51.320;12.340;2023-11-18T07:15:39;0.80;;;0.67;;
38037;SDS011;23843;51.320;12.340;2023-11-18T07:18:04;1.07;;;0.80;;
38037;SDS011;23843;51.320;12.340;2023-11-18T07:20:30;1.03;;;0.80;;
38037;SDS011;23843;51.320;12.340;2023-11-18T07:22:55;0.50;;;0.50;;
38037;SDS011;23843;51.320;12.340;2023-11-18T07:25:21;1.40;;;1.00;;
38037;SDS011;23843;51.320;12.340;2023-11-18T07:27:46;0.90;;;0.70;;
38037;SDS011;23843;51.320;12.340;2023-11-18T07:30:13;0.60;;;0.50;;
38037;SDS011;23843;51.320;12.340;2023-11-18T07:32:39;1.07;;;0.60;;
38037;SDS011;23843;51.320;12.340;2023-11-18T07:35:04;0.50;;;0.50;;
38037;SDS011;23843;51.320;12.340;2023-11-18T07:37:30;0.50;;;0.50;;
38037;SDS011;23843;51.320;12.340;2023-11-18T07:39:55;0.40;;;0.40;;
38037;SDS011;23843;51.320;12.340;2023-11-18T07:42:21;0.77;;;0.47;;
38037;SDS011;23843;51.320;12.340;2023-11-18T07:44:46;0.40;;;0.40;;
38037;SDS011;23843;51.320;12.340;2023-11-18T07:47:13;0.60;;;0.60;;
38037;SDS011;23843;51.320;12.340;2023-11-18T07:49:38;0.53;;;0.47;;
38037;SDS011;23843;51.320;12.340;2023-11-18T07:52:04;0.60;;;0.50;;
38037;SDS011;23843;51.320;12.340;2023-11-18T07:54:30;0.63;;;0.47;;
38037;SDS011;23843;51.320;12.340;2023-11-18T07:56:55;0.70;;;0.50;;
38037;SDS011;23843;51.320;12.340;2023-11-18T07:59:20;0.53;;;0.53;;
38037;SDS011;23843;51.320;12.340;2023-11-18T08:01:46;0.80;;;0.70;;
38037;SDS011;23843;51.320;12.340;2023-11-18T08:04:13;1.27;;;1.10;;
38037;SDS011;23843;51.320;12.340;2023-11-18T08:06:38;0.60;;;0.60;;
38037;SDS011;23843;51.320;12.340;2023-11-18T08:09:04;1.33;;;0.67;;
38037;SDS011;23843;51.320;12.340;2023-11-18T08:11:29;0.60;;;0.60;;
38037;SDS011;23843;51.320;12.340;2023-11-18T08:13:55;0.70;;;0.63;;
38037;SDS011;23843;51.320;12.340;2023-11-18T08:16:20;0.87;;;0.73;;
38037;SDS011;23843;51.320;12.340;2023-11-18T08:18:46;1.00;;;0.80;;
38037;SDS011;23843;51.320;12.340;2023-11-18T08:21:12;0.50;;;0.50;;
38037;SDS011;23843;51.320;12.340;2023-11-18T08:23:38;2.50;;;1.17;;
38037;SDS011;23843;51.320;12.340;2023-11-18T08:26:04;1.00;;;0.73;;
38037;SDS011;23843;51.320;12.340;2023-11-18T08:28:30;1.53;;;1.10;;
38037;SDS011;23843;51.320;12.340;2023-11-18T08:30:55;1.03;;;0.80;;
38037;SDS011;23843;51.320;12.340;2023-11-18T08:33:21;1.00;;;0.80;;
38037;SDS011;23843;51.320;12.340;2023-11-18T08:35:48;1.10;;;0.80;;
38037;SDS011;23843;51.320;12.340;2023-11-18T08:38:15;1.37;;;0.93;;
38037;SDS011;23843;51.320;12.340;2023-11-18T08:40:40;0.77;;;0.63;;
38037;SDS011;23843;51.320;12.340;2023-11-18T08:43:06;0.70;;;0.60;;
38037;SDS011;23843;51.320;12.340;2023-11-18T08:45:31;0.70;;;0.60;;
38037;SDS011;23843;51.320;12.340;2023-11-18T08:47:57;1.00;;;0.93;;
38037;SDS011;23843;51.320;12.340;2023-11-18T08:50:23;0.53;;;0.50;;
38037;SDS011;23843;51.320;12.340;2023-11-18T08:52:49;0.40;;;0.40;;
38037;SDS011;23843;51.320;12.340;2023-11-18T08:55:16;1.27;;;0.90;;
38037;SDS011;23843;51.320;12.340;2023-11-18T08:57:42;1.60;;;0.80;;
38037;SDS011;23843;51.320;12.340;2023-11-18T09:00:08;1.67;;;1.30;;
38037;SDS011;23843;51.320;12.340;2023-11-18T09:02:35;1.93;;;1.00;;
38037;SDS011;23843;51.320;12.340;2023-11-18T09:05:00;3.27;;;2.57;;
38037;SDS011;23843;51.320;12.340;2023-11-18T09:07:26;6.40;;;4.20;;
38037;SDS011;23843;51.320;12.340;2023-11-18T09:09:51;3.13;;;2.00;;
38037;SDS011;23843;51.320;12.340;2023-11-18T09:12:18;2.57;;;2.00;;
38037;SDS011;23843;51.320;12.340;2023-11-18T09:14:43;2.20;;;1.33;;
38037;SDS011;23843;51.320;12.340;2023-11-18T09:17:09;1.80;;;1.47;;
38037;SDS011;23843;51.320;12.340;2023-11-18T09:19:34;2.70;;;1.70;;
38037;SDS011;23843;51.320;12.340;2023-11-18T09:21:59;2.87;;;2.07;;
38037;SDS011;23843;51.320;12.340;2023-11-18T09:24:25;1.40;;;1.30;;
38037;SDS011;23843;51.320;12.340;2023-11-18T09:26:50;2.00;;;1.10;;
38037;SDS011;23843;51.320;12.340;2023-11-18T09:29:17;1.00;;;0.80;;
38037;SDS011;23843;51.320;12.340;2023-11-18T09:31:43;1.50;;;1.13;;
38037;SDS011;23843;51.320;12.340;2023-11-18T09:34:08;1.30;;;1.20;;
38037;SDS011;23843;51.320;12.340;2023-11-18T09:36:34;2.70;;;2.00;;
38037;SDS011;23843;51.320;12.340;2023-11-18T09:38:59;3.37;;;1.63;;
38037;SDS011;23843;51.320;12.340;2023-11-18T09:41:25;2.73;;;2.10;;
38037;SDS011;23843;51.320;12.340;2023-11-18T09:43:50;1.93;;;1.50;;
38037;SDS011;23843;51.320;12.340;2023-11-18T09:46:17;3.73;;;2.77;;
38037;SDS011;23843;51.320;12.340;2023-11-18T09:48:48;2.33;;;1.70;;
38037;SDS011;23843;51.320;12.340;2023-11-18T09:51:17;4.03;;;2.07;;
38037;SDS011;23843;51.320;12.340;2023-11-18T09:53:45;2.20;;;1.37;;
38037;SDS011;23843;51.320;12.340;2023-11-18T09:56:16;2.10;;;1.63;;
38037;SDS011;23843;51.320;12.340;2023-11-18T09:58:48;1.37;;;1.10;;
38037;SDS011;23843;51.320;12.340;2023-11-18T10:01:27;2.10;;;1.50;;
38037;SDS011;23843;51.320;12.340;2023-11-18T10:03:53;1.73;;;1.33;;
38037;SDS011;23843;51.320;12.340;2023-11-18T10:06:20;1.43;;;1.13;;
38037;SDS011;23843;51.320;12.340;2023-11-18T10:08:46;5.00;;;3.70;;
38037;SDS011;23843;51.320;12.340;2023-11-18T10:11:12;4.63;;;3.37;;
38037;SDS011;23843;51.320;12.340;2023-11-18T10:13:38;4.57;;;3.20;;
38037;SDS011;23843;51.320;12.340;2023-11-18T10:16:04;4.77;;;3.47;;
38037;SDS011;23843;51.320;12.340;2023-11-18T10:18:31;5.00;;;3.20;;
38037;SDS011;23843;51.320;12.340;2023-11-18T10:20:57;5.10;;;3.17;;
38037;SDS011;23843;51.320;12.340;2023-11-18T10:23:22;3.30;;;2.40;;
38037;SDS011;23843;51.320;12.340;2023-11-18T10:25:49;3.70;;;2.60;;
38037;SDS011;23843;51.320;12.340;2023-11-18T10:28:22;3.30;;;2.40;;
38037;SDS011;23843;51.320;12.340;2023-11-18T10:30:48;4.30;;;2.70;;
38037;SDS011;23843;51.320;12.340;2023-11-18T10:33:14;3.37;;;2.07;;
38037;SDS011;23843;51.320;12.340;2023-11-18T10:35:42;4.27;;;2.80;;
38037;SDS011;23843;51.320;12.340;2023-11-18T10:38:14;3.03;;;1.90;;
38037;SDS011;23843;51.320;12.340;2023-11-18T10:40:39;1.33;;;1.20;;
38037;SDS011;23843;51.320;12.340;2023-11-18T10:43:06;2.87;;;2.03;;
38037;SDS011;23843;51.320;12.340;2023-11-18T10:45:32;4.13;;;3.10;;
38037;SDS011;23843;51.320;12.340;2023-11-18T10:47:57;4.20;;;2.70;;
38037;SDS011;23843;51.320;12.340;2023-11-18T10:50:23;5.43;;;3.53;;
38037;SDS011;23843;51.320;12.340;2023-11-18T10:52:50;1.63;;;1.40;;
38037;SDS011;23843;51.320;12.340;2023-11-18T10:55:15;9.60;;;4.90;;
38037;SDS011;23843;51.320;12.340;2023-11-18T10:57:41;4.50;;;3.13;;
38037;SDS011;23843;51.320;12.340;2023-11-18T11:00:07;4.40;;;2.90;;
38037;SDS011;23843;51.320;12.340;2023-11-18T11:02:33;5.63;;;3.90;;
38037;SDS011;23843;51.320;12.340;2023-11-18T11:04:58;4.70;;;3.00;;
38037;SDS011;23843;51.320;12.340;2023-11-18T11:07:23;5.03;;;3.40;;
38037;SDS011;23843;51.320;12.340;2023-11-18T11:09:52;3.40;;;2.20;;
38037;SDS011;23843;51.320;12.340;2023-11-18T11:12:17;11.07;;;7.50;;
38037;SDS011;23843;51.320;12.340;2023-11-18T11:14:46;11.60;;;7.00;;
38037;SDS011;23843;51.320;12.340;2023-11-18T11:17:16;5.87;;;4.00;;
38037;SDS011;23843;51.320;12.340;2023-11-18T11:19:46;7.27;;;4.57;;
38037;SDS011;23843;51.320;12.340;2023-11-18T11:22:16;9.23;;;5.80;;
38037;SDS011;23843;51.320;12.340;2023-11-18T11:24:48;5.13;;;3.67;;
38037;SDS011;23843;51.320;12.340;2023-11-18T11:27:23;6.87;;;4.77;;
38037;SDS011;23843;51.320;12.340;2023-11-18T11:29:55;5.30;;;3.53;;
38037;SDS011;23843;51.320;12.340;2023-11-18T11:32:25;4.57;;;3.33;;
38037;SDS011;23843;51.320;12.340;2023-11-18T11:34:56;5.13;;;3.60;;
38037;SDS011;23843;51.320;12.340;2023-11-18T11:37:25;7.47;;;5.03;;
38037;SDS011;23843;51.320;12.340;2023-11-18T11:39:54;7.50;;;4.83;;
38037;SDS011;23843;51.320;12.340;2023-11-18T11:42:20;5.80;;;3.60;;
38037;SDS011;23843;51.320;12.340;2023-11-18T11:44:47;4.87;;;3.20;;
38037;SDS011;23843;51.320;12.340;2023-11-18T11:47:13;4.93;;;3.60;;
38037;SDS011;23843;51.320;12.340;2023-11-18T11:49:41;7.07;;;4.93;;
38037;SDS011;23843;51.320;12.340;2023-11-18T11:52:15;3.97;;;2.80;;
38037;SDS011;23843;51.320;12.340;2023-11-18T11:54:45;4.30;;;3.03;;
38037;SDS011;23843;51.320;12.340;2023-11-18T11:57:18;5.10;;;3.53;;
38037;SDS011;23843;51.320;12.340;2023-11-18T11:59:56;3.90;;;2.63;;
38037;SDS011;23843;51.320;12.340;2023-11-18T12:02:22;2.70;;;1.90;;
38037;SDS011;23843;51.320;12.340;2023-11-18T12:04:48;2.53;;;1.90;;
38037;SDS011;23843;51.320;12.340;2023-11-18T12:07:14;6.07;;;4.13;;
38037;SDS011;23843;51.320;12.340;2023-11-18T12:09:40;4.70;;;3.23;;
38037;SDS011;23843;51.320;12.340;2023-11-18T12:12:06;2.90;;;2.10;;
38037;SDS011;23843;51.320;12.340;2023-11-18T12:14:52;2.60;;;1.90;;
38037;SDS011;23843;51.320;12.340;2023-11-18T12:17:18;2.77;;;2.10;;
38037;SDS011;23843;51.320;12.340;2023-11-18T12:19:44;1.47;;;1.23;;
38037;SDS011;23843;51.320;12.340;2023-11-18T12:22:09;1.90;;;1.33;;
38037;SDS011;23843;51.320;12.340;2023-11-18T12:24:34;3.30;;;2.20;;
38037;SDS011;23843;51.320;12.340;2023-11-18T12:27:00;2.07;;;1.40;;
38037;SDS011;23843;51.320;12.340;2023-11-18T12:29:32;1.30;;;0.97;;
38037;SDS011;23843;51.320;12.340;2023-11-18T12:31:59;0.80;;;0.80;;
38037;SDS011;23843;51.320;12.340;2023-11-18T12:34:24;2.87;;;1.90;;
38037;SDS011;23843;51.320;12.340;2023-11-18T12:37:17;1.80;;;1.40;;
38037;SDS011;23843;51.320;12.340;2023-11-18T12:43:15;1.10;;;0.90;;
38037;SDS011;23843;51.320;12.340;2023-11-18T12:48:46;1.03;;;0.70;;
38037;SDS011;23843;51.320;12.340;2023-11-18T12:51:14;0.60;;;0.57;;
38037;SDS011;23843;51.320;12.340;2023-11-18T12:53:40;0.50;;;0.50;;
38037;SDS011;23843;51.320;12.340;2023-11-18T12:56:06;0.37;;;0.37;;
38037;SDS011;23843;51.320;12.340;2023-11-18T12:58:31;5.33;;;2.93;;
38037;SDS011;23843;51.320;12.340;2023-11-18T13:00:57;2.20;;;1.47;;
38037;SDS011;23843;51.320;12.340;2023-11-18T13:03:22;1.30;;;0.90;;
38037;SDS011;23843;51.320;12.340;2023-11-18T13:05:49;0.60;;;0.60;;
38037;SDS011;23843;51.320;12.340;2023-11-18T13:08:15;1.00;;;0.80;;
38037;SDS011;23843;51.320;12.340;2023-11-18T13:10:40;0.80;;;0.80;;
38037;SDS011;23843;51.320;12.340;2023-11-18T13:13:06;2.03;;;1.47;;
38037;SDS011;23843;51.320;12.340;2023-11-18T13:15:31;1.00;;;0.83;;
38037;SDS011;23843;51.320;12.340;2023-11-18T13:17:57;3.07;;;2.07;;
38037;SDS011;23843;51.320;12.340;2023-11-18T13:20:24;1.90;;;1.47;;
38037;SDS011;23843;51.320;12.340;2023-11-18T13:22:50;0.63;;;0.60;;
38037;SDS011;23843;51.320;12.340;2023-11-18T13:25:16;0.70;;;0.60;;
38037;SDS011;23843;51.320;12.340;2023-11-18T13:27:41;2.73;;;1.87;;
38037;SDS011;23843;51.320;12.340;2023-11-18T13:30:07;1.40;;;0.93;;
38037;SDS011;23843;51.320;12.340;2023-11-18T13:32:33;1.67;;;1.10;;
38037;SDS011;23843;51.320;12.340;2023-11-18T13:35:00;0.80;;;0.80;;
38037;SDS011;23843;51.320;12.340;2023-11-18T13:37:26;0.80;;;0.80;;
38037;SDS011;23843;51.320;12.340;2023-11-18T13:39:56;0.73;;;0.63;;
38037;SDS011;23843;51.320;12.340;2023-11-18T13:42:22;1.30;;;1.10;;
38037;SDS011;23843;51.320;12.340;2023-11-18T13:44:49;1.10;;;0.80;;
38037;SDS011;23843;51.320;12.340;2023-11-18T13:47:16;0.53;;;0.50;;
38037;SDS011;23843;51.320;12.340;2023-11-18T13:49:42;0.30;;;0.30;;
38037;SDS011;23843;51.320;12.340;2023-11-18T13:52:08;0.90;;;0.90;;
38037;SDS011;23843;51.320;12.340;2023-11-18T13:54:34;1.83;;;1.43;;
38037;SDS011;23843;51.320;12.340;2023-11-18T13:57:01;1.00;;;0.77;;
38037;SDS011;23843;51.320;12.340;2023-11-18T13:59:27;0.50;;;0.47;;
38037;SDS011;23843;51.320;12.340;2023-11-18T14:01:53;0.80;;;0.63;;
38037;SDS011;23843;51.320;12.340;2023-11-18T14:04:18;0.70;;;0.63;;
38037;SDS011;23843;51.320;12.340;2023-11-18T14:06:44;0.40;;;0.40;;
38037;SDS011;23843;51.320;12.340;2023-11-18T14:09:09;0.47;;;0.40;;
38037;SDS011;23843;51.320;12.340;2023-11-18T14:11:35;0.30;;;0.30;;
38037;SDS011;23843;51.320;12.340;2023-11-18T14:14:02;0.90;;;0.63;;
38037;SDS011;23843;51.320;12.340;2023-11-18T14:16:27;1.40;;;1.00;;
38037;SDS011;23843;51.320;12.340;2023-11-18T14:18:52;1.60;;;1.20;;
38037;SDS011;23843;51.320;12.340;2023-11-18T14:21:18;1.20;;;1.00;;
38037;SDS011;23843;51.320;12.340;2023-11-18T14:23:43;3.63;;;2.53;;
38037;SDS011;23843;51.320;12.340;2023-11-18T14:26:09;4.57;;;2.60;;
38037;SDS011;23843;51.320;12.340;2023-11-18T14:28:34;3.13;;;2.13;;
38037;SDS011;23843;51.320;12.340;2023-11-18T14:31:01;2.40;;;1.50;;
38037;SDS011;23843;51.320;12.340;2023-11-18T14:33:27;2.37;;;1.57;;
38037;SDS011;23843;51.320;12.340;2023-11-18T14:35:52;2.00;;;1.43;;